Time;durP1;ratioP1;P1;durP2;ratioP2;P2;SDS_P1;SDS_P2;PMS_P1;PMS_P2;Temp;Humidity;BMP_temperature;BMP_pressure;BME280_temperature;BME280_humidity;BME280_pressure;Samples;Min_cycle;Max_cycle;Signal;HPM_P1;HPM_P2
2023/04/18 00:04:36;;;;;;;12.90;8.20;;;;;;;7.44;100.00;100146.34;437022;1251;140061;-63
2023/04/18 00:14:42;;;;;;;9.90;8.10;;;;;;;7.38;100.00;100146.23;436384;1251;140259;-63
2023/04/18 00:24:48;;;;;;;10.90;9.60;;;;;;;7.36;100.00;100149.45;436940;1251;140146;-64
2023/04/18 00:34:54;;;;;;;12.30;8.90;;;;;;;7.35;100.00;100156.09;436497;1255;140159;-64
2023/04/18 00:45:00;;;;;;;11.40;8.60;;;;;;;7.33;100.00;100155.17;436528;1255;139844;-63
2023/04/18 00:55:08;;;;;;;11.20;9.20;;;;;;;7.30;100.00;100152.49;436382;1256;139998;-64
2023/04/18 01:05:15;;;;;;;10.50;9.10;;;;;;;7.25;100.00;100147.12;436311;1251;140570;-64
2023/04/18 01:15:20;;;;;;;11.10;8.30;;;;;;;7.22;100.00;100145.17;436583;1254;140638;-64
2023/04/18 01:25:26;;;;;;;12.90;8.90;;;;;;;7.22;100.00;100147.24;435984;1256;139952;-62
2023/04/18 01:35:33;;;;;;;11.50;8.50;;;;;;;7.21;100.00;100143.10;436022;1256;138957;-62
2023/04/18 01:45:39;;;;;;;12.10;9.70;;;;;;;7.20;100.00;100141.19;436581;1251;139526;-63
2023/04/18 01:55:45;;;;;;;17.10;12.00;;;;;;;7.14;100.00;100144.91;436036;1255;139343;-62
2023/04/18 02:05:51;;;;;;;20.40;13.60;;;;;;;7.11;100.00;100145.59;436404;1250;139405;-62
2023/04/18 02:15:57;;;;;;;15.60;11.20;;;;;;;7.07;100.00;100144.54;436884;1255;139611;-63
2023/04/18 02:26:02;;;;;;;16.20;11.20;;;;;;;7.06;100.00;100146.31;436190;1251;139165;-64
2023/04/18 02:36:09;;;;;;;16.10;12.20;;;;;;;7.08;100.00;100143.10;436281;1251;139163;-63
2023/04/18 02:46:15;;;;;;;18.40;12.80;;;;;;;7.07;100.00;100143.83;436034;1255;141070;-64
2023/04/18 02:56:21;;;;;;;18.70;14.10;;;;;;;7.05;100.00;100144.62;437497;1254;139401;-64
2023/04/18 03:06:27;;;;;;;21.70;17.20;;;;;;;7.00;100.00;100144.99;436471;1250;140024;-63
2023/04/18 03:16:33;;;;;;;25.60;17.80;;;;;;;6.94;100.00;100153.60;436371;1253;140141;-63
2023/04/18 03:26:39;;;;;;;26.30;18.90;;;;;;;6.88;100.00;100148.41;436402;1251;139309;-63
2023/04/18 03:36:45;;;;;;;24.70;19.30;;;;;;;6.83;100.00;100156.80;436003;1255;139001;-64
2023/04/18 03:46:54;;;;;;;26.20;19.30;;;;;;;6.80;100.00;100154.30;436095;1251;139538;-62
2023/04/18 03:57:01;;;;;;;26.30;20.30;;;;;;;6.78;100.00;100157.67;436710;1251;139643;-62
2023/04/18 04:07:07;;;;;;;24.80;17.60;;;;;;;6.79;100.00;100155.40;436138;1251;140107;-62
2023/04/18 04:17:13;;;;;;;28.20;20.50;;;;;;;6.85;100.00;100159.14;435950;1251;140467;-62
2023/04/18 04:27:19;;;;;;;26.90;21.80;;;;;;;6.93;100.00;100169.83;435690;1254;140859;-63
2023/04/18 04:37:25;;;;;;;26.20;20.80;;;;;;;6.98;100.00;100181.45;435965;1255;139192;-63
2023/04/18 04:47:30;;;;;;;29.50;22.40;;;;;;;7.00;100.00;100195.27;436230;1255;139578;-63
2023/04/18 04:57:36;;;;;;;26.40;21.20;;;;;;;7.00;100.00;100201.56;435985;1251;141591;-63
2023/04/18 05:07:42;;;;;;;29.20;21.30;;;;;;;7.02;100.00;100211.05;436085;1251;142866;-62
2023/04/18 05:17:48;;;;;;;32.20;24.10;;;;;;;7.01;100.00;100217.38;436116;1255;138976;-64
2023/04/18 05:27:54;;;;;;;29.40;21.60;;;;;;;7.03;100.00;100215.71;435629;1250;141062;-63
2023/04/18 05:38:00;;;;;;;27.70;22.40;;;;;;;7.07;100.00;100224.97;435715;1250;139570;-63
2023/04/18 05:48:06;;;;;;;27.90;22.90;;;;;;;7.12;100.00;100226.14;435503;1250;140123;-63
2023/04/18 05:58:12;;;;;;;25.00;21.60;;;;;;;7.24;100.00;100224.63;436096;1250;139652;-63
2023/04/18 06:08:18;;;;;;;27.50;22.10;;;;;;;7.38;100.00;100222.34;436161;1251;140359;-63
2023/04/18 06:18:23;;;;;;;27.70;19.70;;;;;;;7.48;100.00;100222.65;436322;1255;139971;-63
2023/04/18 06:28:29;;;;;;;26.00;21.20;;;;;;;7.72;100.00;100234.02;436169;1251;139881;-63
2023/04/18 06:38:35;;;;;;;28.30;22.10;;;;;;;7.82;100.00;100237.25;436226;1254;139331;-63
2023/04/18 06:48:41;;;;;;;25.80;21.70;;;;;;;7.83;100.00;100246.30;436598;1251;140702;-63
2023/04/18 06:58:47;;;;;;;24.70;19.80;;;;;;;7.85;100.00;100250.05;436423;1251;139407;-64
2023/04/18 07:08:58;;;;;;;25.40;19.80;;;;;;;8.03;100.00;100240.07;436842;1251;139791;-64
2023/04/18 07:19:05;;;;;;;27.40;20.50;;;;;;;8.25;100.00;100240.14;436788;1256;140917;-64
2023/04/18 07:29:10;;;;;;;23.70;19.60;;;;;;;8.52;100.00;100248.77;437277;1250;139545;-64
2023/04/18 07:39:16;;;;;;;23.50;18.90;;;;;;;8.88;100.00;100260.58;436739;1253;140696;-65
2023/04/18 07:49:22;;;;;;;28.70;20.80;;;;;;;9.21;100.00;100256.94;436350;1255;139169;-65
2023/04/18 07:59:30;;;;;;;23.40;19.40;;;;;;;9.34;100.00;100260.88;436699;1251;139462;-63
2023/04/18 08:09:36;;;;;;;23.10;19.70;;;;;;;9.55;100.00;100268.48;436629;1250;141126;-63
2023/04/18 08:19:43;;;;;;;21.70;19.20;;;;;;;9.86;100.00;100276.58;436260;1251;140412;-64
2023/04/18 08:29:49;;;;;;;20.80;18.60;;;;;;;10.37;100.00;100279.75;436661;1251;139718;-64
2023/04/18 08:39:55;;;;;;;20.50;18.50;;;;;;;11.40;99.63;100280.37;436142;1254;141169;-64
2023/04/18 08:50:02;;;;;;;17.50;15.50;;;;;;;12.30;97.53;100277.63;436210;1250;139344;-64
2023/04/18 09:00:10;;;;;;;18.20;16.30;;;;;;;13.09;95.14;100281.50;436561;1251;139293;-64
2023/04/18 09:10:27;;;;;;;15.70;14.00;;;;;;;13.76;93.61;100274.71;436639;1250;140038;-64
2023/04/18 09:20:36;;;;;;;15.40;13.80;;;;;;;14.46;91.03;100262.48;436628;1250;140352;-64
2023/04/18 09:30:42;;;;;;;17.20;13.80;;;;;;;14.82;88.74;100265.83;436565;1251;139806;-64
2023/04/18 09:41:06;;;;;;;12.90;11.20;;;;;;;15.68;87.49;100262.22;436243;1250;140392;-64
2023/04/18 09:51:14;;;;;;;14.60;12.40;;;;;;;15.83;84.17;100265.05;435922;1251;141144;-64
2023/04/18 10:01:20;;;;;;;13.40;11.40;;;;;;;15.45;82.83;100260.40;439763;1251;139700;-65
2023/04/18 10:11:26;;;;;;;12.70;11.00;;;;;;;14.67;82.62;100267.36;436310;1250;140893;-63
2023/04/18 10:21:32;;;;;;;12.80;11.50;;;;;;;13.99;83.19;100270.91;436260;1250;140657;-65
2023/04/18 10:31:40;;;;;;;15.40;10.50;;;;;;;14.08;83.39;100257.09;436109;1255;140291;-65
2023/04/18 10:41:51;;;;;;;12.20;11.00;;;;;;;13.98;83.04;100250.19;437105;1253;140284;-64
2023/04/18 10:51:58;;;;;;;14.40;10.10;;;;;;;13.79;82.32;100258.14;436736;1250;140361;-63
2023/04/18 11:02:19;;;;;;;14.50;11.10;;;;;;;13.63;81.75;100251.48;438890;1250;139288;-64
2023/04/18 11:12:28;;;;;;;12.50;11.10;;;;;;;13.36;81.73;100251.08;436797;1255;139817;-64
2023/04/18 11:22:43;;;;;;;11.60;10.10;;;;;;;13.27;82.29;100247.60;436522;1254;139161;-63
2023/04/18 11:32:48;;;;;;;11.10;9.40;;;;;;;13.51;81.98;100242.42;436811;1250;141934;-65
2023/04/18 11:42:55;;;;;;;16.30;11.40;;;;;;;13.68;80.63;100235.30;436912;1250;140544;-64
2023/04/18 11:53:01;;;;;;;11.80;10.20;;;;;;;13.77;81.21;100229.64;436637;1254;140374;-64
2023/04/18 12:03:14;;;;;;;11.70;10.10;;;;;;;14.02;79.93;100223.00;436585;1251;139321;-64
2023/04/18 12:13:26;;;;;;;15.00;11.60;;;;;;;14.27;79.93;100214.26;435963;1250;139435;-63
2023/04/18 12:23:35;;;;;;;11.50;7.60;;;;;;;14.41;79.55;100205.58;435976;1251;140076;-65
2023/04/18 12:33:41;;;;;;;10.10;7.20;;;;;;;14.82;77.25;100203.38;436719;1254;140701;-63
2023/04/18 12:43:47;;;;;;;10.60;7.70;;;;;;;15.10;76.06;100193.30;436159;1251;140772;-64
2023/04/18 12:53:52;;;;;;;11.10;7.30;;;;;;;15.26;74.24;100195.64;436049;1255;140133;-63
2023/04/18 13:03:58;;;;;;;6.10;5.50;;;;;;;15.51;74.38;100184.78;436138;1255;139356;-63
2023/04/18 13:14:17;;;;;;;5.90;5.30;;;;;;;15.84;72.28;100176.86;436441;1250;139607;-68
2023/04/18 13:24:23;;;;;;;12.10;6.90;;;;;;;15.92;71.74;100171.80;436499;1250;139548;-62
2023/04/18 13:34:28;;;;;;;12.30;9.00;;;;;;;15.29;71.38;100159.41;436109;1250;138553;-63
2023/04/18 13:44:35;;;;;;;13.80;9.80;;;;;;;14.49;72.47;100158.52;436323;1256;140282;-64
2023/04/18 13:54:42;;;;;;;13.30;11.10;;;;;;;14.19;74.05;100153.39;436080;1251;139166;-64
2023/04/18 14:04:47;;;;;;;14.80;11.20;;;;;;;14.48;74.96;100142.49;435917;1251;139020;-64
2023/04/18 14:14:53;;;;;;;13.30;11.00;;;;;;;14.73;74.92;100143.02;435525;1254;139706;-64
2023/04/18 14:24:59;;;;;;;13.40;11.00;;;;;;;14.51;75.15;100144.48;436023;1255;138714;-63
2023/04/18 14:35:08;;;;;;;13.40;11.30;;;;;;;13.95;75.64;100142.02;443897;1250;139670;-63
2023/04/18 14:45:15;;;;;;;15.60;11.10;;;;;;;13.62;76.34;100138.66;436270;1251;139108;-67
2023/04/18 14:55:20;;;;;;;18.10;11.00;;;;;;;13.28;76.82;100145.60;436102;1251;139303;-63
2023/04/18 15:05:26;;;;;;;12.00;10.80;;;;;;;12.83;77.54;100142.17;436321;1254;139780;-63
2023/04/18 15:15:34;;;;;;;11.00;9.90;;;;;;;12.58;78.14;100139.02;436438;1251;140451;-63
2023/04/18 15:25:40;;;;;;;12.00;10.10;;;;;;;12.43;78.33;100133.08;436810;1256;139201;-63
2023/04/18 15:35:46;;;;;;;17.10;15.30;;;;;;;12.46;78.65;100132.20;436864;1250;140164;-65
2023/04/18 15:45:52;;;;;;;11.70;10.40;;;;;;;12.63;78.82;100130.96;436411;1251;139937;-64
2023/04/18 15:55:59;;;;;;;12.70;9.70;;;;;;;12.83;78.82;100123.71;436264;1256;140555;-64
2023/04/18 16:06:05;;;;;;;9.80;8.80;;;;;;;13.02;78.74;100122.73;436834;1251;139207;-64
2023/04/18 16:16:12;;;;;;;11.30;9.40;;;;;;;13.04;78.37;100117.27;435870;1256;138850;-67
2023/04/18 16:26:18;;;;;;;13.90;11.50;;;;;;;12.92;77.98;100117.73;437027;1251;140327;-65
2023/04/18 16:36:24;;;;;;;19.10;15.70;;;;;;;12.86;78.20;100110.02;435969;1256;141402;-64
2023/04/18 16:46:31;;;;;;;11.50;9.90;;;;;;;12.80;77.85;100109.70;439382;1251;141315;-64
2023/04/18 16:56:37;;;;;;;12.30;10.70;;;;;;;12.71;77.72;100107.83;437507;1255;141111;-62
2023/04/18 17:06:43;;;;;;;10.70;8.10;;;;;;;12.61;77.55;100108.65;436608;1252;142082;-61
2023/04/18 17:16:49;;;;;;;9.10;8.00;;;;;;;12.48;77.45;100107.02;435977;1255;140233;-61
2023/04/18 17:26:59;;;;;;;12.20;8.00;;;;;;;12.36;77.56;100109.31;435822;1256;140435;-62
2023/04/18 17:37:05;;;;;;;10.20;7.30;;;;;;;12.26;77.58;100113.13;435887;1252;139820;-60
2023/04/18 17:47:10;;;;;;;10.40;9.00;;;;;;;12.15;77.54;100110.05;435797;1251;140731;-62
2023/04/18 17:57:16;;;;;;;11.80;10.60;;;;;;;12.05;77.69;100108.27;435772;1252;139927;-62
2023/04/18 18:07:22;;;;;;;13.60;10.10;;;;;;;11.92;78.07;100110.40;435796;1255;139651;-62
2023/04/18 18:17:28;;;;;;;13.10;11.20;;;;;;;11.81;78.29;100109.52;435902;1256;139844;-62
2023/04/18 18:27:34;;;;;;;17.50;12.60;;;;;;;11.71;78.70;100104.16;436891;1256;139402;-64
2023/04/18 18:37:40;;;;;;;13.90;10.30;;;;;;;11.62;79.06;100097.70;436028;1251;139662;-65
2023/04/18 18:47:46;;;;;;;13.60;10.30;;;;;;;11.56;79.21;100096.11;436821;1255;139798;-64
2023/04/18 18:57:53;;;;;;;21.90;17.20;;;;;;;11.53;79.39;100094.02;446061;1255;140018;-64
2023/04/18 19:08:02;;;;;;;23.90;17.50;;;;;;;11.51;79.65;100086.93;435848;1256;140650;-65
2023/04/18 19:18:09;;;;;;;14.80;10.20;;;;;;;11.48;79.66;100084.10;436089;1256;154374;-65
2023/04/18 19:28:17;;;;;;;12.00;8.90;;;;;;;11.44;79.73;100078.92;436545;1257;139803;-64
2023/04/18 19:38:23;;;;;;;9.10;8.10;;;;;;;11.38;79.80;100069.11;437326;1256;139769;-65
2023/04/18 19:48:28;;;;;;;11.10;8.40;;;;;;;11.32;79.84;100060.67;436753;1257;139587;-67
2023/04/18 19:58:43;;;;;;;19.10;12.00;;;;;;;11.21;79.81;100055.20;436298;1254;139171;-67
2023/04/18 20:08:49;;;;;;;17.30;11.00;;;;;;;11.09;79.78;100055.02;436727;1256;139291;-68
2023/04/18 20:18:56;;;;;;;13.50;11.20;;;;;;;10.95;79.96;100056.39;436526;1251;139337;-66
2023/04/18 20:29:02;;;;;;;13.80;11.40;;;;;;;10.78;80.20;100044.70;436250;1255;140358;-67
2023/04/18 20:39:08;;;;;;;14.10;9.60;;;;;;;10.59;80.77;100044.56;436049;1251;139259;-70
2023/04/18 20:49:14;;;;;;;11.40;7.50;;;;;;;10.37;81.62;100038.98;435963;1251;139688;-71
2023/04/18 20:59:20;;;;;;;11.30;8.80;;;;;;;10.16;82.30;100028.88;435981;1256;140618;-70
2023/04/18 21:09:26;;;;;;;9.90;7.10;;;;;;;9.98;83.01;100022.73;436027;1256;139248;-70
2023/04/18 21:19:32;;;;;;;12.20;9.40;;;;;;;9.79;83.56;100010.64;435981;1256;139714;-69
2023/04/18 21:29:38;;;;;;;10.80;9.00;;;;;;;9.60;84.21;99998.65;436261;1254;139483;-70
2023/04/18 21:39:44;;;;;;;11.90;9.50;;;;;;;9.50;85.04;99998.54;436104;1254;138939;-69
2023/04/18 21:49:50;;;;;;;12.80;9.30;;;;;;;9.33;85.63;99994.66;436228;1251;139268;-71
2023/04/18 21:59:58;;;;;;;9.90;8.90;;;;;;;9.19;86.34;99989.45;436728;1251;139206;-74
2023/04/18 22:10:04;;;;;;;;;;;;;;;9.12;86.85;99980.72;436068;1255;139700;-72
2023/04/18 22:20:11;;;;;;;11.80;9.50;;;;;;;9.16;87.41;99973.40;436684;1251;125506;-72
2023/04/18 22:30:17;;;;;;;12.70;10.10;;;;;;;9.13;87.46;99963.22;436567;1255;139052;-71
2023/04/18 22:40:23;;;;;;;13.70;9.20;;;;;;;9.11;87.94;99951.11;437162;1251;139401;-73
2023/04/18 22:50:29;;;;;;;11.40;9.50;;;;;;;9.06;88.34;99944.16;437200;1251;140923;-72
2023/04/18 23:00:35;;;;;;;10.90;9.20;;;;;;;9.02;88.80;99932.02;437561;1256;140189;-72
2023/04/18 23:10:41;;;;;;;12.60;10.70;;;;;;;8.93;89.49;99917.09;436914;1251;140346;-75
2023/04/18 23:20:47;;;;;;;13.20;11.90;;;;;;;8.85;90.06;99905.27;436018;1250;139900;-71
2023/04/18 23:30:53;;;;;;;12.60;11.10;;;;;;;8.79;90.63;99883.44;435807;1251;139042;-71
2023/04/18 23:40:58;;;;;;;15.40;12.10;;;;;;;8.72;91.37;99875.95;436119;1251;139723;-72
2023/04/18 23:51:04;;;;;;;15.60;11.70;;;;;;;8.68;92.29;99865.65;435975;1251;140300;-73
